createdAt,value
2022-11-25T00:01:12.926Z,1.63
2022-11-25T00:03:41.966Z,1.70
2022-11-25T00:06:11.457Z,1.80
2022-11-25T00:08:40.250Z,1.70
2022-11-25T00:11:09.075Z,1.80
2022-11-25T00:13:39.064Z,1.90
2022-11-25T00:16:08.899Z,1.63
2022-11-25T00:18:37.964Z,1.50
2022-11-25T00:21:07.531Z,1.30
2022-11-25T00:23:36.293Z,1.50
2022-11-25T00:26:08.491Z,1.80
2022-11-25T00:28:38.701Z,1.60
2022-11-25T00:31:08.561Z,1.73
2022-11-25T00:33:37.341Z,1.77
2022-11-25T00:36:06.505Z,1.50
2022-11-25T00:38:35.200Z,1.60
2022-11-25T00:41:21.546Z,1.40
2022-11-25T00:44:09.091Z,1.47
2022-11-25T00:46:37.615Z,1.53
2022-11-25T00:49:06.279Z,1.60
2022-11-25T00:51:35.050Z,1.67
2022-11-25T00:54:03.671Z,1.60
2022-11-25T00:56:32.261Z,1.40
2022-11-25T00:59:02.134Z,1.67
2022-11-25T01:01:30.707Z,1.43
2022-11-25T01:03:59.287Z,1.70
2022-11-25T01:06:27.900Z,1.40
2022-11-25T01:08:56.697Z,1.40
2022-11-25T01:11:25.302Z,1.37
2022-11-25T01:14:00.792Z,1.60
2022-11-25T01:16:31.793Z,1.67
2022-11-25T01:19:00.977Z,1.50
2022-11-25T01:21:30.874Z,1.37
2022-11-25T01:24:00.880Z,1.67
2022-11-25T01:26:30.147Z,1.63
2022-11-25T01:29:00.789Z,1.60
2022-11-25T01:31:31.443Z,1.60
2022-11-25T01:34:01.870Z,1.43
2022-11-25T01:36:30.773Z,1.50
2022-11-25T01:39:00.157Z,1.67
2022-11-25T01:41:29.952Z,1.67
2022-11-25T01:44:08.845Z,1.10
2022-11-25T01:46:44.743Z,1.40
2022-11-25T01:49:14.854Z,1.47
2022-11-25T01:51:45.607Z,1.50
2022-11-25T01:54:16.056Z,1.33
2022-11-25T01:56:47.238Z,1.80
2022-11-25T01:59:15.954Z,1.53
2022-11-25T02:01:45.909Z,1.70
2022-11-25T02:04:16.265Z,1.40
2022-11-25T02:06:49.505Z,1.60
2022-11-25T02:09:19.635Z,1.50
2022-11-25T02:11:48.288Z,1.27
2022-11-25T02:14:18.386Z,1.70
2022-11-25T02:16:48.344Z,1.20
2022-11-25T02:19:21.310Z,1.37
2022-11-25T02:21:57.602Z,1.47
2022-11-25T02:24:29.388Z,1.50
2022-11-25T02:26:59.270Z,1.00
2022-11-25T02:29:28.049Z,1.30
2022-11-25T02:31:56.657Z,1.60
2022-11-25T02:34:25.377Z,2.03
2022-11-25T02:36:54.566Z,1.90
2022-11-25T02:39:23.236Z,1.20
2022-11-25T02:41:53.434Z,1.20
2022-11-25T02:44:23.346Z,1.40
2022-11-25T02:46:51.994Z,1.67
2022-11-25T02:49:20.709Z,1.63
2022-11-25T02:51:49.401Z,1.40
2022-11-25T02:54:18.324Z,1.40
2022-11-25T02:56:46.845Z,1.57
2022-11-25T02:59:15.456Z,1.77
2022-11-25T03:01:45.474Z,1.50
2022-11-25T03:04:14.174Z,1.60
2022-11-25T03:06:42.716Z,1.40
2022-11-25T03:09:11.632Z,1.40
2022-11-25T03:11:58.002Z,1.53
2022-11-25T03:14:26.561Z,1.90
2022-11-25T03:16:56.491Z,1.50
2022-11-25T03:19:25.101Z,1.40
2022-11-25T03:21:53.733Z,1.40
2022-11-25T03:24:22.352Z,1.47
2022-11-25T03:26:50.940Z,1.70
2022-11-25T03:29:19.541Z,1.60
2022-11-25T03:31:48.183Z,1.53
2022-11-25T03:34:18.169Z,1.50
2022-11-25T03:36:46.717Z,1.47
2022-11-25T03:39:16.105Z,1.33
2022-11-25T03:41:44.648Z,1.40
2022-11-25T03:44:13.274Z,1.23
2022-11-25T03:46:41.861Z,1.50
2022-11-25T03:49:10.469Z,1.50
2022-11-25T03:51:40.338Z,1.50
2022-11-25T03:54:08.896Z,1.87
2022-11-25T03:56:37.494Z,1.77
2022-11-25T03:59:06.102Z,1.67
2022-11-25T04:01:34.833Z,1.60
2022-11-25T04:04:03.466Z,1.70
2022-11-25T04:06:32.046Z,1.90
2022-11-25T04:09:01.992Z,1.60
2022-11-25T04:11:44.514Z,1.73
2022-11-25T04:14:13.105Z,1.50
2022-11-25T04:16:41.870Z,1.30
2022-11-25T04:19:10.550Z,1.37
2022-11-25T04:21:39.085Z,1.27
2022-11-25T04:24:09.630Z,1.30
2022-11-25T04:26:38.198Z,1.80
2022-11-25T04:29:06.990Z,1.50
2022-11-25T04:31:35.574Z,1.60
2022-11-25T04:34:04.141Z,1.43
2022-11-25T04:36:32.803Z,1.53
2022-11-25T04:39:01.392Z,1.50
2022-11-25T04:41:31.487Z,1.50
2022-11-25T04:44:01.345Z,1.60
2022-11-25T04:46:32.895Z,1.20
2022-11-25T04:49:01.549Z,1.60
2022-11-25T04:51:30.257Z,1.30
2022-11-25T04:53:58.932Z,1.60
2022-11-25T04:56:27.625Z,1.40
2022-11-25T04:59:15.272Z,1.30
2022-11-25T05:01:43.884Z,1.20
2022-11-25T05:04:12.488Z,1.20
2022-11-25T05:06:41.120Z,1.27
2022-11-25T05:09:11.090Z,1.00
2022-11-25T05:11:39.764Z,1.07
2022-11-25T05:14:09.662Z,1.00
2022-11-25T05:16:38.306Z,1.37
2022-11-25T05:19:06.942Z,1.10
2022-11-25T05:21:35.550Z,1.00
2022-11-25T05:24:04.169Z,1.50
2022-11-25T05:26:32.841Z,1.00
2022-11-25T05:29:01.447Z,0.90
2022-11-25T05:31:31.346Z,1.10
2022-11-25T05:34:01.676Z,1.10
2022-11-25T05:36:30.406Z,1.10
2022-11-25T05:38:59.051Z,0.80
2022-11-25T05:41:27.638Z,1.20
2022-11-25T05:43:56.858Z,0.90
2022-11-25T05:46:25.432Z,1.00
2022-11-25T05:48:56.186Z,1.20
2022-11-25T05:51:25.274Z,1.00
2022-11-25T05:53:53.970Z,1.07
2022-11-25T05:56:22.912Z,1.30
2022-11-25T05:58:51.485Z,1.27
2022-11-25T06:01:20.075Z,1.17
2022-11-25T06:03:48.789Z,1.50
2022-11-25T06:06:19.090Z,1.20
2022-11-25T06:08:47.726Z,1.20
2022-11-25T06:11:17.320Z,1.30
2022-11-25T06:13:46.152Z,1.80
2022-11-25T06:16:15.922Z,1.43
2022-11-25T06:18:44.550Z,1.00
2022-11-25T06:21:13.342Z,1.00
2022-11-25T06:23:47.752Z,1.30
2022-11-25T06:26:17.692Z,1.10
2022-11-25T06:28:46.371Z,1.50
2022-11-25T06:31:15.879Z,1.37
2022-11-25T06:33:44.590Z,1.30
2022-11-25T06:36:17.054Z,1.20
2022-11-25T06:38:47.735Z,1.20
2022-11-25T06:41:16.321Z,1.43
2022-11-25T06:43:45.041Z,1.20
2022-11-25T06:46:15.082Z,1.10
2022-11-25T06:48:46.015Z,0.97
2022-11-25T06:51:15.546Z,1.10
2022-11-25T06:53:44.472Z,1.40
2022-11-25T06:56:15.585Z,1.10
2022-11-25T06:58:44.744Z,1.23
2022-11-25T07:01:14.620Z,1.20
2022-11-25T07:03:43.404Z,1.53
2022-11-25T07:06:13.318Z,1.37
2022-11-25T07:08:42.285Z,1.50
2022-11-25T07:11:13.538Z,1.53
2022-11-25T07:13:43.630Z,1.30
2022-11-25T07:16:12.672Z,1.20
2022-11-25T07:18:41.875Z,1.30
2022-11-25T07:21:11.809Z,1.40
2022-11-25T07:23:40.633Z,1.50
2022-11-25T07:26:10.852Z,1.73
2022-11-25T07:28:39.564Z,1.50
2022-11-25T07:34:01.574Z,1.60
2022-11-25T07:36:30.984Z,1.40
2022-11-25T07:39:00.180Z,1.30
2022-11-25T07:41:29.937Z,1.20
2022-11-25T07:43:59.635Z,1.50
2022-11-25T07:46:32.076Z,1.13
2022-11-25T07:49:01.409Z,1.87
2022-11-25T07:51:30.886Z,1.50
2022-11-25T07:54:00.447Z,1.50
2022-11-25T07:56:29.886Z,1.57
2022-11-25T07:58:59.101Z,1.70
2022-11-25T08:01:27.706Z,1.77
2022-11-25T08:03:57.723Z,1.60
2022-11-25T08:06:26.998Z,2.00
2022-11-25T08:08:56.156Z,2.00
2022-11-25T08:11:25.534Z,1.80
2022-11-25T08:13:54.457Z,1.83
2022-11-25T08:16:24.103Z,2.17
2022-11-25T08:18:52.885Z,1.63
2022-11-25T08:21:22.751Z,1.67
2022-11-25T08:23:52.501Z,1.57
2022-11-25T08:26:22.321Z,1.50
2022-11-25T08:28:51.765Z,1.67
2022-11-25T08:31:21.973Z,1.47
2022-11-25T08:33:50.887Z,1.60
2022-11-25T08:36:19.752Z,1.37
2022-11-25T08:38:51.023Z,1.40
2022-11-25T08:41:21.966Z,1.50
2022-11-25T08:43:50.882Z,1.80
2022-11-25T08:46:21.247Z,1.70
2022-11-25T08:48:49.855Z,1.87
2022-11-25T08:51:20.447Z,1.50
2022-11-25T08:53:51.483Z,1.90
2022-11-25T08:56:25.494Z,2.23
2022-11-25T08:58:54.994Z,1.63
2022-11-25T09:01:24.666Z,1.90
2022-11-25T09:03:55.227Z,1.83
2022-11-25T09:06:24.391Z,1.97
2022-11-25T09:08:56.013Z,1.87
2022-11-25T09:11:24.834Z,1.43
2022-11-25T09:13:53.533Z,1.53
2022-11-25T09:16:22.519Z,1.63
2022-11-25T09:18:55.590Z,1.50
2022-11-25T09:21:25.668Z,1.90
2022-11-25T09:23:55.858Z,1.70
2022-11-25T09:26:25.438Z,1.40
2022-11-25T09:28:54.461Z,2.27
2022-11-25T09:31:23.614Z,1.70
2022-11-25T09:33:52.232Z,2.00
2022-11-25T09:36:21.330Z,1.93
2022-11-25T09:38:49.926Z,1.90
2022-11-25T09:41:46.836Z,1.60
2022-11-25T09:44:39.816Z,1.40
2022-11-25T09:47:14.333Z,1.50
2022-11-25T09:49:48.813Z,1.80
2022-11-25T09:52:21.018Z,1.63
2022-11-25T09:54:50.842Z,2.20
2022-11-25T09:57:27.181Z,2.17
2022-11-25T10:00:01.414Z,2.10
2022-11-25T10:02:35.075Z,1.87
2022-11-25T10:05:08.129Z,2.17
2022-11-25T10:07:38.551Z,2.13
2022-11-25T10:10:08.416Z,1.70
2022-11-25T10:12:40.529Z,1.73
2022-11-25T10:15:14.389Z,1.97
2022-11-25T10:17:45.529Z,1.60
2022-11-25T10:20:16.449Z,1.70
2022-11-25T10:22:45.712Z,1.33
2022-11-25T10:25:15.963Z,1.80
2022-11-25T10:27:48.666Z,1.60
2022-11-25T10:30:19.391Z,2.10
2022-11-25T10:32:51.169Z,2.07
2022-11-25T10:35:29.178Z,1.90
2022-11-25T10:38:00.985Z,2.30
2022-11-25T10:40:29.732Z,1.87
2022-11-25T10:42:59.665Z,2.07
2022-11-25T10:45:31.933Z,1.70
2022-11-25T10:48:11.005Z,2.27
2022-11-25T10:50:48.237Z,2.13
2022-11-25T10:53:18.630Z,2.27
2022-11-25T10:55:58.614Z,1.90
2022-11-25T10:58:30.854Z,1.97
2022-11-25T11:01:14.917Z,2.00
2022-11-25T11:03:44.893Z,1.70
2022-11-25T11:06:31.661Z,1.93
2022-11-25T11:09:00.446Z,2.00
2022-11-25T11:11:29.287Z,1.90
2022-11-25T11:14:13.729Z,2.10
2022-11-25T11:16:43.159Z,1.90
2022-11-25T11:19:22.661Z,1.90
2022-11-25T11:21:52.032Z,1.90
2022-11-25T11:24:27.841Z,2.03
2022-11-25T11:27:06.787Z,1.40
2022-11-25T11:29:37.120Z,1.50
2022-11-25T11:32:06.596Z,1.60
2022-11-25T11:34:42.880Z,2.40
2022-11-25T11:37:19.038Z,1.70
2022-11-25T11:40:00.699Z,2.10
2022-11-25T11:42:34.467Z,1.97
2022-11-25T11:45:11.515Z,1.80
2022-11-25T11:47:45.061Z,2.13
2022-11-25T11:50:24.858Z,1.73
2022-11-25T11:52:58.482Z,2.07
2022-11-25T11:55:41.963Z,1.97
2022-11-25T11:58:15.731Z,1.70
2022-11-25T12:00:50.470Z,1.90
2022-11-25T12:03:20.988Z,2.07
2022-11-25T12:05:54.077Z,1.80
2022-11-25T12:08:27.652Z,2.03
2022-11-25T12:10:58.091Z,1.90
2022-11-25T12:13:29.422Z,1.90
2022-11-25T12:16:02.346Z,1.80
2022-11-25T12:18:36.900Z,1.90
2022-11-25T12:21:06.449Z,1.97
2022-11-25T12:23:40.994Z,1.87
2022-11-25T12:26:13.111Z,1.97
2022-11-25T12:28:45.317Z,2.00
2022-11-25T12:31:18.569Z,1.90
2022-11-25T12:33:50.255Z,2.27
2022-11-25T12:36:20.729Z,2.30
2022-11-25T12:38:54.902Z,1.97
2022-11-25T12:41:27.027Z,1.70
2022-11-25T12:44:00.429Z,1.80
2022-11-25T12:46:35.521Z,1.80
2022-11-25T12:49:04.222Z,1.60
2022-11-25T12:51:39.162Z,1.73
2022-11-25T12:54:15.501Z,1.60
2022-11-25T12:56:53.349Z,1.57
2022-11-25T12:59:30.534Z,1.70
2022-11-25T13:02:06.768Z,1.60
2022-11-25T13:05:18.575Z,1.80
2022-11-25T13:07:53.442Z,1.50
2022-11-25T13:10:29.984Z,1.60
2022-11-25T13:13:04.579Z,1.80
2022-11-25T13:15:37.962Z,1.70
2022-11-25T13:18:11.250Z,1.57
2022-11-25T13:20:46.891Z,1.50
2022-11-25T13:23:28.724Z,1.97
2022-11-25T13:26:12.223Z,1.47
2022-11-25T13:28:40.840Z,1.43
2022-11-25T13:31:19.676Z,1.93
2022-11-25T13:34:01.184Z,1.40
2022-11-25T13:36:45.348Z,1.77
2022-11-25T13:39:17.347Z,1.77
2022-11-25T13:41:47.473Z,1.63
2022-11-25T13:44:30.727Z,1.43
2022-11-25T13:47:01.642Z,1.57
2022-11-25T13:49:42.522Z,1.57
2022-11-25T13:52:29.661Z,1.83
2022-11-25T13:54:58.781Z,1.90
2022-11-25T13:57:29.083Z,1.60
2022-11-25T13:59:59.879Z,1.47
2022-11-25T14:02:33.013Z,1.53
2022-11-25T14:05:05.628Z,1.60
2022-11-25T14:07:39.395Z,1.43
2022-11-25T14:10:22.971Z,1.70
2022-11-25T14:12:58.322Z,1.20
2022-11-25T14:15:34.407Z,1.40
2022-11-25T14:18:12.441Z,1.70
2022-11-25T14:20:46.052Z,1.30
2022-11-25T14:23:39.416Z,1.50
2022-11-25T14:26:26.747Z,1.60
2022-11-25T14:29:02.412Z,1.70
2022-11-25T14:31:51.524Z,1.80
2022-11-25T14:34:23.217Z,1.60
2022-11-25T14:36:55.841Z,1.57
2022-11-25T14:39:27.301Z,1.90
2022-11-25T14:42:00.020Z,1.60
2022-11-25T14:44:30.087Z,1.67
2022-11-25T14:46:59.905Z,1.53
2022-11-25T14:49:52.009Z,1.90
2022-11-25T14:52:31.162Z,1.73
2022-11-25T14:55:00.384Z,1.77
2022-11-25T14:57:30.218Z,1.70
2022-11-25T15:00:00.137Z,1.50
2022-11-25T15:02:30.924Z,1.70
2022-11-25T15:05:15.372Z,1.83
2022-11-25T15:07:46.046Z,1.53
2022-11-25T15:10:29.554Z,1.33
2022-11-25T15:12:58.138Z,1.23
2022-11-25T15:15:27.602Z,1.40
2022-11-25T15:17:56.380Z,1.20
2022-11-25T15:20:27.840Z,1.60
2022-11-25T15:22:57.813Z,1.40
2022-11-25T15:25:26.424Z,1.33
2022-11-25T15:27:55.408Z,1.63
2022-11-25T15:30:25.365Z,1.40
2022-11-25T15:32:54.559Z,1.30
2022-11-25T15:35:24.091Z,1.20
2022-11-25T15:37:54.206Z,1.67
2022-11-25T15:40:36.352Z,1.60
2022-11-25T15:43:06.271Z,1.80
2022-11-25T15:45:37.830Z,1.60
2022-11-25T15:48:06.794Z,1.60
2022-11-25T15:50:35.350Z,1.40
2022-11-25T15:53:03.937Z,1.67
2022-11-25T15:55:35.353Z,1.73
2022-11-25T15:58:05.247Z,1.60
2022-11-25T16:00:33.958Z,1.50
2022-11-25T16:03:04.113Z,1.53
2022-11-25T16:05:34.358Z,1.80
2022-11-25T16:08:04.452Z,1.80
2022-11-25T16:10:35.901Z,1.70
2022-11-25T16:13:28.998Z,1.60
2022-11-25T16:15:59.558Z,1.50
2022-11-25T16:18:40.387Z,1.80
2022-11-25T16:21:10.584Z,1.50
2022-11-25T16:23:40.662Z,1.67
2022-11-25T16:26:16.007Z,1.60
2022-11-25T16:28:51.550Z,1.77
2022-11-25T16:31:20.341Z,1.60
2022-11-25T16:33:48.961Z,1.70
2022-11-25T16:36:17.517Z,1.57
2022-11-25T16:38:46.054Z,1.33
2022-11-25T16:41:21.057Z,1.40
2022-11-25T16:43:49.656Z,1.70
2022-11-25T16:46:19.429Z,1.50
2022-11-25T16:48:48.354Z,1.80
2022-11-25T16:51:17.849Z,1.50
2022-11-25T16:53:46.839Z,1.40
2022-11-25T16:56:17.411Z,1.10
2022-11-25T16:58:47.351Z,1.50
2022-11-25T17:01:17.868Z,1.60
2022-11-25T17:03:46.510Z,1.77
2022-11-25T17:06:21.668Z,1.40
2022-11-25T17:08:51.430Z,1.83
2022-11-25T17:11:22.042Z,1.90
2022-11-25T17:13:53.403Z,1.60
2022-11-25T17:16:23.556Z,1.80
2022-11-25T17:18:54.137Z,1.40
2022-11-25T17:21:26.727Z,1.87
2022-11-25T17:23:55.523Z,1.80
2022-11-25T17:26:26.379Z,1.80
2022-11-25T17:28:57.473Z,1.73
2022-11-25T17:31:27.399Z,1.80
2022-11-25T17:33:56.345Z,2.10
2022-11-25T17:36:26.214Z,1.70
2022-11-25T17:38:54.862Z,1.70
2022-11-25T17:41:26.712Z,2.10
2022-11-25T17:43:56.960Z,1.90
2022-11-25T17:46:29.446Z,1.67
2022-11-25T17:48:58.265Z,1.80
2022-11-25T17:51:26.847Z,1.97
2022-11-25T17:53:55.379Z,2.13
2022-11-25T17:56:25.291Z,1.80
2022-11-25T17:58:54.042Z,1.90
2022-11-25T18:01:24.068Z,2.20
2022-11-25T18:03:53.925Z,1.67
2022-11-25T18:06:23.223Z,1.40
2022-11-25T18:08:51.807Z,1.50
2022-11-25T18:11:22.841Z,1.87
2022-11-25T18:13:51.561Z,1.90
2022-11-25T18:16:23.284Z,1.70
2022-11-25T18:18:53.257Z,2.00
2022-11-25T18:21:23.763Z,1.93
2022-11-25T18:23:52.412Z,1.90
2022-11-25T18:26:20.980Z,2.17
2022-11-25T18:28:49.603Z,2.30
2022-11-25T18:31:18.245Z,1.80
2022-11-25T18:33:46.823Z,1.87
2022-11-25T18:36:16.712Z,1.70
2022-11-25T18:38:45.497Z,1.80
2022-11-25T18:41:19.351Z,1.63
2022-11-25T18:43:47.978Z,2.40
2022-11-25T18:46:16.647Z,1.83
2022-11-25T18:48:45.347Z,1.90
2022-11-25T18:51:14.294Z,2.13
2022-11-25T18:53:44.242Z,1.77
2022-11-25T18:56:17.668Z,1.87
2022-11-25T18:58:51.123Z,2.00
2022-11-25T19:01:21.252Z,2.37
2022-11-25T19:03:49.998Z,2.20
2022-11-25T19:06:18.743Z,2.20
2022-11-25T19:08:48.613Z,2.37
2022-11-25T19:11:19.063Z,2.23
2022-11-25T19:13:50.746Z,2.20
2022-11-25T19:16:21.091Z,2.30
2022-11-25T19:18:50.655Z,2.23
2022-11-25T19:21:20.742Z,2.30
2022-11-25T19:23:50.634Z,2.87
2022-11-25T19:26:21.841Z,2.03
2022-11-25T19:28:51.990Z,2.33
2022-11-25T19:31:20.969Z,2.20
2022-11-25T19:33:51.694Z,1.90
2022-11-25T19:36:23.533Z,2.23
2022-11-25T19:38:53.639Z,2.27
2022-11-25T19:41:22.717Z,2.17
2022-11-25T19:43:51.692Z,2.40
2022-11-25T19:46:32.995Z,1.90
2022-11-25T19:49:03.047Z,1.57
2022-11-25T19:51:33.588Z,2.00
2022-11-25T19:54:03.535Z,2.30
2022-11-25T19:56:34.007Z,1.93
2022-11-25T19:59:02.611Z,1.70
2022-11-25T20:01:33.441Z,2.00
2022-11-25T20:04:03.024Z,2.40
2022-11-25T20:06:32.018Z,2.20
2022-11-25T20:09:06.396Z,2.13
2022-11-25T20:11:37.647Z,2.13
2022-11-25T20:14:06.478Z,1.97
2022-11-25T20:16:37.327Z,1.90
2022-11-25T20:19:06.987Z,2.30
2022-11-25T20:21:38.273Z,2.00
2022-11-25T20:24:11.605Z,2.20
2022-11-25T20:26:45.808Z,2.33
2022-11-25T20:29:16.346Z,2.10
2022-11-25T20:31:44.965Z,2.10
2022-11-25T20:34:13.703Z,2.20
2022-11-25T20:36:43.641Z,2.53
2022-11-25T20:39:17.161Z,2.63
2022-11-25T20:41:48.449Z,2.40
2022-11-25T20:44:17.074Z,2.03
2022-11-25T20:46:45.737Z,2.10
2022-11-25T20:49:20.865Z,2.07
2022-11-25T20:51:49.691Z,2.20
2022-11-25T20:54:18.635Z,2.10
2022-11-25T20:56:48.483Z,2.27
2022-11-25T20:59:21.581Z,2.47
2022-11-25T21:01:50.466Z,2.77
2022-11-25T21:04:19.265Z,1.90
2022-11-25T21:06:47.833Z,1.87
2022-11-25T21:09:18.963Z,2.30
2022-11-25T21:11:49.120Z,2.50
2022-11-25T21:14:19.347Z,2.53
2022-11-25T21:16:48.447Z,2.77
2022-11-25T21:19:17.537Z,2.47
2022-11-25T21:21:47.214Z,2.47
2022-11-25T21:24:20.281Z,2.60
2022-11-25T21:26:50.942Z,2.77
2022-11-25T21:29:19.886Z,2.90
2022-11-25T21:31:48.530Z,2.60
2022-11-25T21:34:17.133Z,2.80
2022-11-25T21:36:46.889Z,3.03
2022-11-25T21:39:22.502Z,2.87
2022-11-25T21:41:52.522Z,2.97
2022-11-25T21:44:25.841Z,2.90
2022-11-25T21:46:54.713Z,3.17
2022-11-25T21:49:23.553Z,2.90
2022-11-25T21:51:52.194Z,3.30
2022-11-25T21:54:20.796Z,2.90
2022-11-25T21:56:51.284Z,2.73
2022-11-25T21:59:22.315Z,3.03
2022-11-25T22:01:50.922Z,2.73
2022-11-25T22:04:20.908Z,2.87
2022-11-25T22:06:51.016Z,2.43
2022-11-25T22:09:19.985Z,3.17
2022-11-25T22:11:50.235Z,2.70
2022-11-25T22:14:25.256Z,2.60
2022-11-25T22:16:53.965Z,3.37
2022-11-25T22:19:23.674Z,2.83
2022-11-25T22:21:52.274Z,3.03
2022-11-25T22:24:21.153Z,2.50
2022-11-25T22:26:54.739Z,2.70
2022-11-25T22:29:31.665Z,2.50
2022-11-25T22:32:00.341Z,2.83
2022-11-25T22:34:28.931Z,2.60
2022-11-25T22:36:57.531Z,2.53
2022-11-25T22:39:26.859Z,2.90
2022-11-25T22:41:56.124Z,3.17
2022-11-25T22:44:26.625Z,2.77
2022-11-25T22:46:56.597Z,3.30
2022-11-25T22:49:33.101Z,3.63
2022-11-25T22:52:02.007Z,3.57
2022-11-25T22:54:30.601Z,3.50
2022-11-25T22:56:59.255Z,3.43
2022-11-25T22:59:27.854Z,3.70
2022-11-25T23:01:57.966Z,2.83
2022-11-25T23:04:26.503Z,3.10
2022-11-25T23:06:56.065Z,3.20
2022-11-25T23:09:24.638Z,3.20
2022-11-25T23:11:53.159Z,3.07
2022-11-25T23:14:21.669Z,3.40
2022-11-25T23:16:50.289Z,2.50
2022-11-25T23:19:20.214Z,3.10
2022-11-25T23:21:48.807Z,2.97
2022-11-25T23:24:18.737Z,3.30
2022-11-25T23:26:47.316Z,2.83
2022-11-25T23:29:15.932Z,2.80
2022-11-25T23:31:44.563Z,3.33
2022-11-25T23:34:14.396Z,2.60
2022-11-25T23:36:45.929Z,2.73
2022-11-25T23:39:19.589Z,3.13
2022-11-25T23:41:48.714Z,3.27
2022-11-25T23:44:18.550Z,2.90
2022-11-25T23:46:47.165Z,2.80
2022-11-25T23:49:20.274Z,2.93
2022-11-25T23:51:50.345Z,2.93
2022-11-25T23:54:20.142Z,3.50
2022-11-25T23:56:48.684Z,3.17
2022-11-25T23:59:17.771Z,3.33
